Thunder radar more information blitzortung!


Radar de pluja more information rain snow radar


Visita la nostra xarxa de llocs de meteo:

Template documentation
and downloads

And another site



No particular awareness of the weather is required.    There are no Weather-warnings

Pagina Historial Weather Underground text

Diari Resum Juny 9, 2017 Unitats:  Imperial    Mètric   Tant
« Previous Dia
SegĂźent Dia »
Diari Setmana Mensual Anual Personalitzada
  Maxima: Minima: Media:
Temperatura: TemperatureC °F 16.4 °F 23.3 °F
Punt de rosada: DewpointC °F 12.6 °F 15.3 °F
Humitat: Humidity % 42 % 63 %
Wind Speed: WindSpeedKMH mph 0.0 mph 5.6 mph
RĂ fegues de vent: WindSpeedGustKMH mph - -
Vent:- - SSE
Pression baro: PressurehPa in 1013.8 in -
Precipitacions: 0.0 in    
Historical Graphs
 
 
Dades de taula per Juny 9, 2017
Temps Temperatura Punt de rosada Pression baro Vent Wind Speed RĂ fegues de vent Humitat Rainfall Rate (Hourly)
TemperatureC °F DewpointC °F PressurehPa in Calm     Humidity % HourlyPrecipMM in
00:01 18.4 °F 14.5 °F 1015.8 in SW 5.6 mph 5.6 mph 78 % 0.0 in
00:05 17.1 °F 14.0 °F 1015.8 in WSW 3.2 mph 3.2 mph 82 % 0.0 in
00:06 18.4 °F 14.7 °F 1015.8 in SW 3.7 mph 4.7 mph 79 % 0.0 in
00:11 18.4 °F 14.7 °F 1015.8 in SW 3.9 mph 3.9 mph 79 % 0.0 in
00:15 17.0 °F 13.9 °F 1015.8 in Calm   4.8 mph 82 % 0.0 in
00:16 18.4 °F 14.7 °F 1015.8 in WSW 3.7 mph 3.7 mph 79 % 0.0 in
00:21 18.4 °F 14.7 °F 1015.8 in West 3.7 mph 3.7 mph 79 % 0.0 in
00:25 17.2 °F 14.1 °F 1015.8 in WNW 3.2 mph 6.4 mph 82 % 0.0 in
00:26 18.4 °F 14.9 °F 1015.8 in WSW 3.7 mph 3.7 mph 80 % 0.0 in
00:35 17.3 °F 14.0 °F 1015.8 in SE 3.2 mph 6.4 mph 81 % 0.0 in
00:45 17.1 °F 14.0 °F 1015.8 in South 3.2 mph 6.4 mph 82 % 0.0 in
00:55 16.9 °F 14.2 °F 1015.8 in SE 1.6 mph 3.2 mph 84 % 0.0 in
01:05 16.8 °F 14.3 °F 1014.8 in ESE 3.2 mph 3.2 mph 85 % 0.0 in
01:15 16.7 °F 14.0 °F 1014.8 in East 4.8 mph 9.7 mph 84 % 0.0 in
01:25 16.7 °F 14.3 °F 1015.8 in NE 1.6 mph 6.4 mph 86 % 0.0 in
01:45 16.7 °F 14.3 °F 1014.8 in ENE 3.2 mph 6.4 mph 86 % 0.0 in
01:55 16.7 °F 14.7 °F 1016.8 in Calm   4.8 mph 88 % 0.0 in
02:05 16.7 °F 14.7 °F 1015.8 in South 1.6 mph 3.2 mph 88 % 0.0 in
02:15 17.0 °F 14.8 °F 1015.8 in North 3.2 mph 8.0 mph 87 % 0.0 in
02:25 16.9 °F 15.1 °F 1017.8 in NW 3.2 mph 3.2 mph 89 % 0.0 in
02:35 16.9 °F 15.1 °F 1015.8 in SSW 3.2 mph 4.8 mph 89 % 0.0 in
02:45 16.8 °F 14.8 °F 1015.8 in SSW 4.8 mph 6.4 mph 88 % 0.0 in
02:55 16.7 °F 14.7 °F 1016.8 in SW 3.2 mph 6.4 mph 88 % 0.0 in
03:05 16.7 °F 15.1 °F 1016.8 in WSW 3.2 mph 4.8 mph 90 % 0.0 in
03:15 16.9 °F 15.2 °F 1016.8 in North 4.8 mph 4.8 mph 90 % 0.0 in
03:25 16.9 °F 15.2 °F 1017.8 in NNE 3.2 mph 4.8 mph 90 % 0.0 in
03:35 17.0 °F 15.3 °F 1017.8 in NE 1.6 mph 3.2 mph 90 % 0.0 in
03:45 17.4 °F 15.7 °F 1017.8 in NNE 3.2 mph 4.8 mph 90 % 0.0 in
03:55 17.9 °F 16.2 °F 1017.8 in ENE 1.6 mph 3.2 mph 90 % 0.0 in
04:05 18.0 °F 16.2 °F 1017.8 in SSE 1.6 mph 4.8 mph 89 % 0.0 in
04:15 17.9 °F 16.1 °F 1017.8 in SW 3.2 mph 4.8 mph 89 % 0.0 in
04:25 18.8 °F 16.9 °F 1016.8 in Calm   3.2 mph 89 % 0.0 in
04:35 19.6 °F 17.6 °F 1017.8 in SSW 1.6 mph 4.8 mph 88 % 0.0 in
04:45 19.8 °F 17.2 °F 1017.8 in SSW 1.6 mph 3.2 mph 85 % 0.0 in
09:47 20.0 °F 17.4 °F 1017.8 in SSE 3.7 mph 3.7 mph 85 % 0.0 in
09:52 20.1 °F 17.3 °F 1017.8 in Calm     84 % 0.0 in
09:57 20.3 °F 17.3 °F 1017.8 in South 1.9 mph   83 % 0.0 in
10:02 20.8 °F 17.8 °F 1017.8 in South 5.6 mph 5.6 mph 83 % 0.0 in
10:03 20.7 °F 17.5 °F 1017.8 in SSE 4.2 mph 4.2 mph 82 % 0.0 in
10:08 20.9 °F 17.5 °F 1017.8 in ESE 3.7 mph 3.7 mph 81 % 0.0 in
10:13 21.4 °F 17.6 °F 1017.8 in ENE 1.9 mph   79 % 0.0 in
10:18 21.9 °F 17.9 °F 1017.8 in SW 3.7 mph 3.7 mph 78 % 0.0 in
10:23 22.1 °F 17.9 °F 1017.8 in SSW 3.7 mph 3.7 mph 77 % 0.0 in
10:28 22.1 °F 17.4 °F 1017.8 in East 5.6 mph 5.6 mph 75 % 0.0 in
10:33 22.5 °F 17.8 °F 1017.8 in WSW 3.7 mph 3.7 mph 75 % 0.0 in
10:38 22.9 °F 18.2 °F 1017.8 in ESE 3.7 mph 3.7 mph 75 % 0.0 in
10:43 23.4 °F 18.1 °F 1017.8 in SSW 7.4 mph 7.4 mph 72 % 0.0 in
10:48 23.7 °F 18.3 °F 1017.8 in ESE 3.7 mph 3.7 mph 72 % 0.0 in
10:53 23.7 °F 18.1 °F 1017.8 in ESE 4.7 mph 4.7 mph 71 % 0.0 in
10:59 23.8 °F 18.0 °F 1017.8 in East 3.7 mph 3.7 mph 70 % 0.0 in
11:04 24.0 °F 17.9 °F 1017.8 in SW 2.6 mph 2.6 mph 69 % 0.0 in
11:09 24.4 °F 18.1 °F 1017.8 in ENE 5.8 mph 5.8 mph 68 % 0.0 in
11:14 23.9 °F 17.4 °F 1017.8 in South 9.3 mph 9.3 mph 67 % 0.0 in
11:19 24.7 °F 17.7 °F 1017.8 in SE 3.7 mph 3.7 mph 65 % 0.0 in
11:24 25.3 °F 18.0 °F 1017.8 in SE 5.3 mph 5.3 mph 64 % 0.0 in
11:29 24.9 °F 17.9 °F 1017.8 in SW 7.4 mph 7.4 mph 65 % 0.0 in
11:34 25.0 °F 16.9 °F 1017.8 in SW 7.4 mph 7.4 mph 61 % 0.0 in
11:37 25.3 °F 17.0 °F 1017.8 in SW 3.7 mph 3.7 mph 60 % 0.0 in
11:42 25.6 °F 17.3 °F 1017.8 in SSW 6.1 mph 6.1 mph 60 % 0.0 in
11:47 25.5 °F 17.2 °F 1017.8 in SSW 11.1 mph 11.1 mph 60 % 0.0 in
11:52 25.6 °F 16.7 °F 1017.8 in SW 9.3 mph 9.3 mph 58 % 0.0 in
11:57 25.7 °F 16.6 °F 1017.8 in SSW 9.3 mph 9.3 mph 57 % 0.0 in
12:02 25.4 °F 16.0 °F 1016.8 in SSW 9.3 mph 9.3 mph 56 % 0.0 in
12:07 25.3 °F 15.9 °F 1016.8 in SW 11.1 mph 11.1 mph 56 % 0.0 in
12:12 25.4 °F 16.0 °F 1016.8 in SW 11.1 mph 11.1 mph 56 % 0.0 in
12:17 25.6 °F 15.9 °F 1017.8 in SSW 9.3 mph 9.3 mph 55 % 0.0 in
12:22 25.9 °F 16.2 °F 1017.8 in SW 5.6 mph 5.6 mph 55 % 0.0 in
12:27 26.5 °F 16.7 °F 1017.8 in SSW 5.6 mph 5.6 mph 55 % 0.0 in
12:32 26.5 °F 16.7 °F 1015.8 in SW 5.6 mph 5.6 mph 55 % 0.0 in
12:37 27.2 °F 17.1 °F 1015.8 in WSW 7.4 mph 7.4 mph 54 % 0.0 in
12:42 27.8 °F 17.3 °F 1015.8 in SSW 2.6 mph 2.6 mph 53 % 0.0 in
12:47 27.2 °F 16.5 °F 1015.8 in West 9.3 mph 9.3 mph 52 % 0.0 in
12:52 27.5 °F 16.8 °F 1015.8 in SW 5.0 mph 5.0 mph 52 % 0.0 in
12:57 27.5 °F 16.4 °F 1015.8 in SW 5.6 mph 5.6 mph 51 % 0.0 in
13:02 27.8 °F 16.7 °F 1016.8 in SW 7.4 mph 7.4 mph 51 % 0.0 in
13:07 27.9 °F 16.5 °F 1016.8 in WSW 9.3 mph 9.3 mph 50 % 0.0 in
13:12 28.1 °F 16.7 °F 1016.8 in SW 7.4 mph 7.4 mph 50 % 0.0 in
13:17 28.0 °F 16.3 °F 1015.8 in West 3.7 mph 3.7 mph 49 % 0.0 in
13:22 28.0 °F 15.9 °F 1015.8 in SSW 9.3 mph 9.3 mph 48 % 0.0 in
13:27 28.1 °F 16.1 °F 1015.8 in ENE 5.6 mph 5.6 mph 48 % 0.0 in
13:32 28.3 °F 15.9 °F 1015.8 in SW 7.4 mph 7.4 mph 47 % 0.0 in
13:37 28.3 °F 16.2 °F 1015.8 in SW 5.6 mph 5.6 mph 48 % 0.0 in
13:42 28.9 °F 16.4 °F 1015.8 in WSW 3.9 mph 3.9 mph 47 % 0.0 in
13:47 28.8 °F 16.4 °F 1015.8 in West 9.3 mph 9.3 mph 47 % 0.0 in
13:52 29.5 °F 17.0 °F 1015.8 in SW 8.7 mph 8.7 mph 47 % 0.0 in
13:57 28.3 °F 15.6 °F 1015.8 in South 7.4 mph 7.4 mph 46 % 0.0 in
14:02 28.3 °F 15.9 °F 1014.8 in WSW 7.4 mph 7.4 mph 47 % 0.0 in
14:07 28.2 °F 16.2 °F 1014.8 in ESE 9.5 mph 9.5 mph 48 % 0.0 in
14:12 27.7 °F 16.0 °F 1014.8 in NNE 7.4 mph 7.4 mph 49 % 0.0 in
14:17 28.0 °F 16.3 °F 1015.8 in ESE 6.1 mph 6.1 mph 49 % 0.0 in
14:22 28.7 °F 16.9 °F 1015.8 in South 6.1 mph 6.1 mph 49 % 0.0 in
14:23 28.7 °F 16.9 °F 1015.8 in South 7.6 mph 7.6 mph 49 % 0.0 in
14:28 29.0 °F 16.9 °F 1015.8 in SSW 5.6 mph 5.6 mph 48 % 0.0 in
14:33 29.7 °F 17.5 °F 1015.8 in SE 5.6 mph 5.6 mph 48 % 0.0 in
14:38 29.9 °F 17.7 °F 1015.8 in West 5.6 mph 5.6 mph 48 % 0.0 in
14:43 29.9 °F 17.4 °F 1015.8 in SE 6.4 mph 6.4 mph 47 % 0.0 in
14:48 30.1 °F 17.2 °F 1015.8 in West 8.7 mph 8.7 mph 46 % 0.0 in
14:53 29.8 °F 16.9 °F 1015.8 in South 11.1 mph 11.1 mph 46 % 0.0 in
14:58 29.5 °F 15.9 °F 1015.8 in ESE 7.4 mph 7.4 mph 44 % 0.0 in
15:03 28.2 °F 16.4 °F 1015.8 in ESE 9.3 mph 9.3 mph 49 % 0.0 in
15:08 28.0 °F 16.6 °F 1015.8 in SE 9.3 mph 9.3 mph 50 % 0.0 in
15:13 28.6 °F 16.8 °F 1015.8 in SSE 20.4 mph 20.4 mph 49 % 0.0 in
15:18 29.2 °F 16.4 °F 1015.8 in South 3.7 mph 3.7 mph 46 % 0.0 in
15:23 29.6 °F 16.4 °F 1015.8 in South 9.3 mph 9.3 mph 45 % 0.0 in
15:28 29.2 °F 16.4 °F 1015.8 in NNE 9.3 mph 9.3 mph 46 % 0.0 in
15:33 29.0 °F 16.2 °F 1015.8 in West 5.6 mph 5.6 mph 46 % 0.0 in
15:38 29.5 °F 15.9 °F 1015.8 in SE 5.6 mph 5.6 mph 44 % 0.0 in
15:43 29.5 °F 15.2 °F 1015.8 in SSE 5.6 mph 5.6 mph 42 % 0.0 in
15:48 29.5 °F 15.6 °F 1015.8 in SSE 8.7 mph 8.7 mph 43 % 0.0 in
15:53 28.7 °F 16.3 °F 1015.8 in ESE 9.3 mph 9.3 mph 47 % 0.0 in
15:58 28.6 °F 16.2 °F 1015.8 in SSW 9.3 mph 9.3 mph 47 % 0.0 in
16:03 28.2 °F 16.2 °F 1015.8 in NNE 5.6 mph 5.6 mph 48 % 0.0 in
16:08 27.8 °F 16.1 °F 1015.8 in SE 14.8 mph 14.8 mph 49 % 0.0 in
16:13 28.2 °F 15.8 °F 1015.8 in NW 11.1 mph 11.1 mph 47 % 0.0 in
16:18 28.7 °F 15.9 °F 1015.8 in West 9.5 mph 9.5 mph 46 % 0.0 in
16:23 28.7 °F 15.6 °F 1015.8 in SE 6.1 mph 6.1 mph 45 % 0.0 in
16:28 28.0 °F 15.6 °F 1015.8 in SSE 13.0 mph 13.0 mph 47 % 0.0 in
16:33 28.4 °F 16.3 °F 1015.8 in SW 9.3 mph 9.3 mph 48 % 0.0 in
16:38 28.9 °F 16.1 °F 1015.8 in SSW 7.4 mph 7.4 mph 46 % 0.0 in
16:43 29.0 °F 15.5 °F 1015.8 in East 9.3 mph 9.3 mph 44 % 0.0 in
16:48 28.2 °F 15.8 °F 1015.8 in SSW 7.4 mph 7.4 mph 47 % 0.0 in
16:53 28.5 °F 16.1 °F 1015.8 in South 5.6 mph 5.6 mph 47 % 0.0 in
16:58 29.0 °F 15.9 °F 1015.8 in WSW 10.0 mph 10.0 mph 45 % 0.0 in
16:59 29.0 °F 15.9 °F 1015.8 in SW 9.3 mph 9.3 mph 45 % 0.0 in
17:04 29.1 °F 15.9 °F 1015.8 in SSW 14.8 mph 14.8 mph 45 % 0.0 in
17:09 28.7 °F 15.9 °F 1015.8 in WSW 8.7 mph 8.7 mph 46 % 0.0 in
17:14 28.3 °F 15.2 °F 1015.8 in SW 13.0 mph 13.0 mph 45 % 0.0 in
17:19 28.3 °F 15.2 °F 1015.8 in West 5.6 mph 5.6 mph 45 % 0.0 in
17:24 28.6 °F 15.5 °F 1015.8 in SSW 11.4 mph 11.4 mph 45 % 0.0 in
17:29 28.3 °F 15.2 °F 1015.8 in West 5.8 mph 5.8 mph 45 % 0.0 in
17:34 28.5 °F 15.4 °F 1015.8 in West 9.0 mph 9.0 mph 45 % 0.0 in
17:39 28.1 °F 15.1 °F 1015.8 in SSE 11.1 mph 11.1 mph 45 % 0.0 in
17:44 28.5 °F 15.4 °F 1015.8 in SW 9.5 mph 9.5 mph 45 % 0.0 in
17:49 28.1 °F 15.1 °F 1015.8 in SW 9.3 mph 9.3 mph 45 % 0.0 in
17:54 28.1 °F 15.1 °F 1015.8 in SW 13.0 mph 13.0 mph 45 % 0.0 in
17:59 28.1 °F 14.7 °F 1015.8 in SW 7.6 mph 7.6 mph 44 % 0.0 in
18:04 28.4 °F 15.3 °F 1014.8 in SW 5.6 mph 5.6 mph 45 % 0.0 in
18:09 28.5 °F 15.4 °F 1014.8 in WSW 7.6 mph 7.6 mph 45 % 0.0 in
18:14 28.4 °F 15.3 °F 1014.8 in SSE 9.3 mph 9.3 mph 45 % 0.0 in
18:19 28.3 °F 15.2 °F 1014.8 in West 7.4 mph 7.4 mph 45 % 0.0 in
18:24 28.2 °F 14.8 °F 1014.8 in West 5.6 mph 5.6 mph 44 % 0.0 in
18:29 28.1 °F 14.7 °F 1014.8 in WSW 5.8 mph 5.8 mph 44 % 0.0 in
18:34 27.8 °F 14.1 °F 1014.8 in North 4.7 mph 4.7 mph 43 % 0.0 in
18:39 27.6 °F 14.2 °F 1014.8 in South 5.6 mph 5.6 mph 44 % 0.0 in
18:44 27.4 °F 14.1 °F 1014.8 in WSW 7.4 mph 7.4 mph 44 % 0.0 in
18:49 26.1 °F 13.2 °F 1014.8 in SE 11.1 mph 11.1 mph 45 % 0.0 in
18:54 25.5 °F 12.7 °F 1014.8 in NE 16.7 mph 16.7 mph 45 % 0.0 in
18:59 25.4 °F 12.9 °F 1014.8 in ENE 13.0 mph 13.0 mph 46 % 0.0 in
19:04 25.1 °F 12.7 °F 1013.8 in NNW 5.6 mph 5.6 mph 46 % 0.0 in
19:09 25.2 °F 13.1 °F 1013.8 in South 7.4 mph 7.4 mph 47 % 0.0 in
19:14 25.7 °F 13.2 °F 1013.8 in SW 13.0 mph 13.0 mph 46 % 0.0 in
19:16 25.9 °F 13.4 °F 1013.8 in WSW 13.0 mph 13.0 mph 46 % 0.0 in
19:20 19.5 °F 14.7 °F 1018.8 in Calm   1.6 mph 74 % 0.0 in
19:21 25.8 °F 13.3 °F 1014.8 in SW 7.4 mph 7.4 mph 46 % 0.0 in
19:26 25.9 °F 13.4 °F 1014.8 in SSW 5.6 mph 5.6 mph 46 % 0.0 in
19:30 19.4 °F 14.7 °F 1017.8 in Calm     74 % 0.0 in
19:31 26.0 °F 13.5 °F 1014.8 in South 5.6 mph 5.6 mph 46 % 0.0 in
19:36 26.1 °F 13.6 °F 1014.8 in WSW 3.7 mph 3.7 mph 46 % 0.0 in
19:40 19.2 °F 14.7 °F 1017.8 in Calm     75 % 0.0 in
19:41 25.8 °F 12.9 °F 1014.8 in South 7.4 mph 7.4 mph 45 % 0.0 in
19:46 25.3 °F 12.8 °F 1014.8 in WSW 3.7 mph 3.7 mph 46 % 0.0 in
19:50 19.2 °F 14.7 °F 1017.8 in Calm     75 % 0.0 in
19:51 25.4 °F 12.9 °F 1014.8 in SSW 5.6 mph 5.6 mph 46 % 0.0 in
19:56 25.5 °F 13.1 °F 1014.8 in SW 3.7 mph 3.7 mph 46 % 0.0 in
20:00 19.1 °F 14.6 °F 1017.8 in Calm     75 % 0.0 in
20:01 25.3 °F 12.8 °F 1014.8 in SW 9.3 mph 9.3 mph 46 % 0.0 in
20:06 25.0 °F 12.6 °F 1014.8 in ESE 3.7 mph 3.7 mph 46 % 0.0 in
20:10 18.9 °F 14.6 °F 1017.8 in Calm     76 % 0.0 in
20:11 24.9 °F 12.8 °F 1014.8 in SW 4.7 mph 4.7 mph 47 % 0.0 in
20:16 24.6 °F 13.2 °F 1014.8 in NE 3.9 mph 4.7 mph 49 % 0.0 in
20:20 18.8 °F 14.7 °F 1017.8 in Calm   1.6 mph 77 % 0.0 in
20:21 23.9 °F 13.2 °F 1014.8 in ENE 9.5 mph 9.5 mph 51 % 0.0 in
20:26 23.5 °F 13.7 °F 1014.8 in East 11.1 mph 11.1 mph 54 % 0.0 in
20:30 18.7 °F 14.6 °F 1017.8 in West 1.6 mph 3.2 mph 77 % 0.0 in
20:31 23.3 °F 14.1 °F 1014.8 in ENE 7.4 mph 7.4 mph 56 % 0.0 in
20:36 23.2 °F 14.2 °F 1015.8 in ESE 5.6 mph 5.6 mph 57 % 0.0 in
20:40 18.5 °F 14.4 °F 1017.8 in Calm   3.2 mph 77 % 0.0 in
20:41 23.0 °F 14.3 °F 1015.8 in ESE 11.1 mph 11.1 mph 58 % 0.0 in
20:46 22.7 °F 14.6 °F 1015.8 in ENE 9.3 mph 9.3 mph 60 % 0.0 in
20:50 18.5 °F 14.6 °F 1017.8 in Calm   1.6 mph 78 % 0.0 in
20:51 22.6 °F 14.4 °F 1015.8 in East 9.3 mph 9.3 mph 60 % 0.0 in
20:56 22.5 °F 14.6 °F 1015.8 in East 7.4 mph 7.4 mph 61 % 0.0 in
21:00 18.3 °F 14.2 °F 1017.8 in East 1.6 mph 1.6 mph 77 % 0.0 in
21:01 22.4 °F 14.5 °F 1015.8 in ESE 9.3 mph 9.3 mph 61 % 0.0 in
21:06 22.3 °F 14.7 °F 1015.8 in East 5.6 mph 5.6 mph 62 % 0.0 in
21:10 17.9 °F 13.8 °F 1017.8 in SSW 3.2 mph 3.2 mph 77 % 0.0 in
21:11 22.2 °F 14.6 °F 1015.8 in SE 7.4 mph 7.4 mph 62 % 0.0 in
21:16 22.2 °F 14.6 °F 1015.8 in ENE 6.1 mph 6.1 mph 62 % 0.0 in
21:20 17.9 °F 14.0 °F 1017.8 in WSW 1.6 mph 1.6 mph 78 % 0.0 in
21:21 22.0 °F 14.6 °F 1015.8 in East 5.6 mph 5.8 mph 63 % 0.0 in
21:26 21.9 °F 14.8 °F 1015.8 in ENE 5.8 mph 5.8 mph 64 % 0.0 in
21:30 17.8 °F 14.1 °F 1016.8 in Calm     79 % 0.0 in
21:31 21.8 °F 14.9 °F 1015.8 in ESE 5.6 mph 5.6 mph 65 % 0.0 in
21:36 21.7 °F 15.1 °F 1015.8 in ENE 5.6 mph 5.6 mph 66 % 0.0 in
21:40 17.8 °F 14.1 °F 1017.8 in Calm     79 % 0.0 in
21:41 21.6 °F 15.0 °F 1015.8 in NNE 6.9 mph 6.9 mph 66 % 0.0 in
21:46 21.5 °F 15.1 °F 1015.8 in ESE 5.6 mph 5.6 mph 67 % 0.0 in
21:50 17.8 °F 14.1 °F 1017.8 in Calm   1.6 mph 79 % 0.0 in
21:51 21.4 °F 15.0 °F 1014.8 in NE 7.4 mph 7.4 mph 67 % 0.0 in
21:56 21.3 °F 14.9 °F 1014.8 in East 6.4 mph 6.4 mph 67 % 0.0 in
22:00 17.6 °F 13.9 °F 1017.8 in Calm   1.6 mph 79 % 0.0 in
22:01 21.2 °F 15.1 °F 1014.8 in ENE 5.0 mph 5.0 mph 68 % 0.0 in
22:06 21.2 °F 15.1 °F 1015.8 in NE 4.2 mph 4.2 mph 68 % 0.0 in
22:10 17.5 °F 13.6 °F 1017.8 in WSW 3.2 mph 3.2 mph 78 % 0.0 in
22:11 21.1 °F 15.2 °F 1015.8 in ENE 7.4 mph 7.4 mph 69 % 0.0 in
22:16 21.1 °F 15.2 °F 1015.8 in NNE 3.9 mph 3.9 mph 69 % 0.0 in
22:20 17.3 °F 13.6 °F 1017.8 in Calm   1.6 mph 79 % 0.0 in
22:21 21.0 °F 15.1 °F 1015.8 in NNE 4.7 mph 4.7 mph 69 % 0.0 in
22:26 20.9 °F 15.0 °F 1015.8 in NNE 3.9 mph 3.9 mph 69 % 0.0 in
22:30 17.0 °F 13.3 °F 1017.8 in Calm   3.2 mph 79 % 0.0 in
22:31 20.9 °F 15.0 °F 1015.8 in NNW 5.6 mph 5.6 mph 69 % 0.0 in
22:36 20.8 °F 15.1 °F 1016.8 in North 3.7 mph 3.7 mph 70 % 0.0 in
22:40 16.9 °F 13.4 °F 1017.8 in SW 3.2 mph 3.2 mph 80 % 0.0 in
22:41 20.8 °F 15.1 °F 1016.8 in NE 3.7 mph 3.7 mph 70 % 0.0 in
22:46 20.7 °F 15.1 °F 1016.8 in NNE 3.9 mph 3.9 mph 70 % 0.0 in
22:50 16.6 °F 13.1 °F 1017.8 in WSW 3.2 mph 4.8 mph 80 % 0.0 in
22:51 20.6 °F 14.9 °F 1017.8 in NNE 3.9 mph 4.2 mph 70 % 0.0 in
22:56 20.6 °F 15.2 °F 1017.8 in NNE 5.6 mph 5.6 mph 71 % 0.0 in
23:00 16.5 °F 13.2 °F 1017.8 in Calm   1.6 mph 81 % 0.0 in
23:01 20.5 °F 15.1 °F 1017.8 in NNE 7.4 mph 7.4 mph 71 % 0.0 in
23:06 20.4 °F 15.2 °F 1017.8 in NE 5.6 mph 5.6 mph 72 % 0.0 in
23:10 16.4 °F 13.1 °F 1017.8 in SW 1.6 mph 3.2 mph 81 % 0.0 in
23:11 20.4 °F 15.2 °F 1017.8 in NE 4.7 mph 4.7 mph 72 % 0.0 in
23:16 20.3 °F 15.1 °F 1017.8 in NNE 5.6 mph 5.6 mph 72 % 0.0 in
23:20 16.4 °F 13.1 °F 1017.8 in SW 1.6 mph 3.2 mph 81 % 0.0 in
23:21 20.3 °F 15.1 °F 1017.8 in NNE 3.7 mph 3.9 mph 72 % 0.0 in
23:26 20.2 °F 15.0 °F 1017.8 in NNE 3.7 mph 3.7 mph 72 % 0.0 in
23:30 16.5 °F 13.4 °F 1017.8 in Calm     82 % 0.0 in
23:31 20.2 °F 15.0 °F 1017.8 in NE 4.7 mph 4.7 mph 72 % 0.0 in
23:36 20.1 °F 14.9 °F 1017.8 in North 4.2 mph 4.2 mph 72 % 0.0 in
23:40 16.7 °F 13.6 °F 1017.8 in Calm   1.6 mph 82 % 0.0 in
23:41 20.1 °F 14.9 °F 1017.8 in NE 5.6 mph 5.6 mph 72 % 0.0 in
23:46 20.0 °F 14.8 °F 1017.8 in NNE 1.9 mph   72 % 0.0 in
23:50 16.8 °F 13.7 °F 1017.8 in Calm     82 % 0.0 in
23:51 19.9 °F 14.9 °F 1017.8 in NNE 1.4 mph   73 % 0.0 in
23:56 19.8 °F 14.8 °F 1017.8 in North 3.7 mph 3.7 mph 73 % 0.0 in
Meteo Sesrovires
Elogis d' Weather Underground - 2 mb

Guio original per  Jim McMurry - jmcmurry@mwt.net Adaptat per a la plantilla per  Wim van der Kuil - Leuven-Template.eu

Trobareu la nostra informacio del temps tambe a:

Weather Underground

AWEKAS